createdAt,value
2022-08-18T00:00:04.605Z,973.75
2022-08-18T00:01:03.634Z,973.80
2022-08-18T00:02:04.761Z,973.78
2022-08-18T00:03:42.704Z,973.78
2022-08-18T00:04:03.905Z,973.60
2022-08-18T00:05:06.023Z,973.78
2022-08-18T00:06:03.359Z,973.87
2022-08-18T00:07:03.301Z,973.75
2022-08-18T00:08:03.458Z,973.87
2022-08-18T00:09:03.650Z,973.64
2022-08-18T00:10:04.013Z,973.69
2022-08-18T00:11:03.112Z,973.70
2022-08-18T00:12:03.168Z,973.76
2022-08-18T00:13:03.203Z,973.73
2022-08-18T00:14:03.314Z,973.58
2022-08-18T00:15:03.405Z,973.70
2022-08-18T00:16:03.430Z,973.64
2022-08-18T00:17:03.547Z,973.59
2022-08-18T00:18:03.735Z,973.67
2022-08-18T00:19:09.626Z,973.68
2022-08-18T00:20:03.108Z,973.76
2022-08-18T00:21:03.014Z,973.70
2022-08-18T00:22:03.123Z,973.59
2022-08-18T00:23:03.308Z,973.71
2022-08-18T00:24:03.356Z,973.68
2022-08-18T00:25:03.414Z,973.59
2022-08-18T00:26:03.380Z,973.62
2022-08-18T00:27:03.506Z,973.74
2022-08-18T00:28:03.438Z,973.74
2022-08-18T00:29:03.664Z,973.62
2022-08-18T00:30:03.714Z,973.54
2022-08-18T00:31:03.724Z,973.68
2022-08-18T00:32:03.797Z,973.65
2022-08-18T00:33:02.944Z,973.71
2022-08-18T00:34:03.070Z,973.66
2022-08-18T00:35:03.140Z,973.71
2022-08-18T00:36:03.110Z,973.63
2022-08-18T00:37:03.179Z,973.69
2022-08-18T00:38:03.126Z,973.63
2022-08-18T00:39:03.273Z,973.60
2022-08-18T00:40:03.440Z,973.57
2022-08-18T00:41:03.516Z,973.57
2022-08-18T00:42:03.572Z,973.66
2022-08-18T00:43:03.616Z,973.57
2022-08-18T00:44:03.611Z,973.63
2022-08-18T00:45:03.642Z,973.57
2022-08-18T00:46:03.719Z,973.69
2022-08-18T00:47:03.889Z,973.60
2022-08-18T00:48:03.917Z,973.53
2022-08-18T00:49:03.880Z,973.57
2022-08-18T00:50:03.844Z,973.54
2022-08-18T00:51:02.895Z,973.55
2022-08-18T00:52:02.943Z,973.55
2022-08-18T00:53:02.970Z,973.57
2022-08-18T00:54:03.075Z,973.41
2022-08-18T00:55:03.176Z,973.47
2022-08-18T00:56:04.732Z,973.53
2022-08-18T00:57:03.847Z,973.50
2022-08-18T00:58:02.921Z,973.50
2022-08-18T00:59:03.062Z,973.61
2022-08-18T01:00:03.067Z,973.58
2022-08-18T01:01:03.385Z,973.44
2022-08-18T01:02:03.213Z,973.53
2022-08-18T01:03:03.367Z,973.48
2022-08-18T01:04:03.424Z,973.45
2022-08-18T01:05:03.628Z,973.47
2022-08-18T01:06:03.714Z,973.36
2022-08-18T01:07:04.507Z,973.39
2022-08-18T01:08:02.953Z,973.45
2022-08-18T01:09:02.991Z,973.50
2022-08-18T01:10:03.031Z,973.36
2022-08-18T01:11:03.140Z,973.45
2022-08-18T01:12:46.789Z,973.48
2022-08-18T01:13:03.856Z,973.48
2022-08-18T01:14:02.969Z,973.42
2022-08-18T01:15:03.070Z,973.48
2022-08-18T01:16:03.695Z,973.51
2022-08-18T01:17:03.765Z,973.45
2022-08-18T01:18:03.757Z,973.42
2022-08-18T01:19:03.765Z,973.56
2022-08-18T01:20:03.772Z,973.48
2022-08-18T01:21:03.731Z,973.39
2022-08-18T01:22:02.911Z,973.42
2022-08-18T01:23:02.933Z,973.37
2022-08-18T01:24:03.024Z,973.48
2022-08-18T01:25:03.023Z,973.28
2022-08-18T01:26:03.084Z,973.43
2022-08-18T01:27:03.173Z,973.49
2022-08-18T01:28:03.330Z,973.46
2022-08-18T01:29:03.403Z,973.56
2022-08-18T01:30:03.518Z,973.54
2022-08-18T01:31:03.564Z,973.49
2022-08-18T01:32:03.711Z,973.49
2022-08-18T01:33:03.452Z,973.59
2022-08-18T01:34:02.926Z,973.49
2022-08-18T01:35:02.973Z,973.59
2022-08-18T01:36:03.043Z,973.43
2022-08-18T01:37:03.161Z,973.49
2022-08-18T01:38:04.397Z,973.54
2022-08-18T01:39:03.233Z,973.40
2022-08-18T01:41:30.048Z,973.40
2022-08-18T01:41:30.920Z,973.40
2022-08-18T01:42:03.559Z,973.38
2022-08-18T01:43:03.458Z,973.38
2022-08-18T01:44:03.644Z,973.38
2022-08-18T01:45:04.683Z,973.41
2022-08-18T01:46:03.783Z,973.41
2022-08-18T01:47:03.841Z,973.35
2022-08-18T01:48:03.641Z,973.29
2022-08-18T01:49:03.040Z,973.35
2022-08-18T01:50:03.195Z,973.44
2022-08-18T01:51:03.302Z,973.35
2022-08-18T01:52:03.359Z,973.35
2022-08-18T01:53:03.269Z,973.47
2022-08-18T01:54:03.390Z,973.41
2022-08-18T01:55:05.567Z,973.41
2022-08-18T01:56:03.764Z,973.47
2022-08-18T01:57:03.771Z,973.36
2022-08-18T01:58:03.753Z,973.44
2022-08-18T01:59:02.964Z,973.39
2022-08-18T02:00:02.966Z,973.36
2022-08-18T02:01:03.058Z,973.36
2022-08-18T02:02:03.140Z,973.33
2022-08-18T02:03:03.464Z,973.39
2022-08-18T02:04:36.378Z,973.39
2022-08-18T02:05:03.320Z,973.33
2022-08-18T02:06:03.348Z,973.30
2022-08-18T02:07:04.710Z,973.36
2022-08-18T02:08:03.558Z,973.36
2022-08-18T02:09:05.853Z,973.33
2022-08-18T02:10:03.621Z,973.45
2022-08-18T02:11:03.750Z,973.36
2022-08-18T02:12:03.815Z,973.51
2022-08-18T02:13:03.897Z,973.30
2022-08-18T02:14:03.381Z,973.42
2022-08-18T02:15:03.554Z,973.42
2022-08-18T02:16:03.697Z,973.42
2022-08-18T02:17:03.757Z,973.36
2022-08-18T02:18:03.769Z,973.45
2022-08-18T02:19:03.902Z,973.33
2022-08-18T02:20:04.576Z,973.39
2022-08-18T02:21:03.099Z,973.45
2022-08-18T02:22:03.255Z,973.42
2022-08-18T02:23:03.289Z,973.36
2022-08-18T02:24:03.305Z,973.42
2022-08-18T02:25:03.357Z,973.48
2022-08-18T02:26:03.477Z,973.54
2022-08-18T02:27:03.611Z,973.36
2022-08-18T02:28:03.788Z,973.42
2022-08-18T02:29:03.771Z,973.39
2022-08-18T02:30:03.915Z,973.51
2022-08-18T02:31:02.920Z,973.48
2022-08-18T02:32:03.448Z,973.34
2022-08-18T02:33:03.498Z,973.54
2022-08-18T02:34:03.505Z,973.42
2022-08-18T02:35:06.164Z,973.54
2022-08-18T02:36:03.599Z,973.45
2022-08-18T02:37:03.784Z,973.51
2022-08-18T02:38:04.154Z,973.48
2022-08-18T02:39:03.001Z,973.39
2022-08-18T02:40:03.157Z,973.54
2022-08-18T02:41:03.020Z,973.45
2022-08-18T02:42:03.065Z,973.42
2022-08-18T02:43:03.157Z,973.45
2022-08-18T02:44:03.226Z,973.39
2022-08-18T02:45:03.233Z,973.42
2022-08-18T02:46:03.249Z,973.45
2022-08-18T02:47:03.418Z,973.36
2022-08-18T02:48:03.538Z,973.36
2022-08-18T02:49:03.538Z,973.51
2022-08-18T02:50:03.548Z,973.39
2022-08-18T02:51:03.616Z,973.42
2022-08-18T02:52:03.609Z,973.36
2022-08-18T02:53:03.637Z,973.39
2022-08-18T02:54:03.841Z,973.48
2022-08-18T02:55:03.785Z,973.22
2022-08-18T02:56:02.934Z,973.34
2022-08-18T02:57:03.020Z,973.39
2022-08-18T02:58:03.137Z,973.31
2022-08-18T02:59:03.249Z,973.31
2022-08-18T03:00:03.745Z,973.22
2022-08-18T03:01:03.497Z,973.28
2022-08-18T03:02:03.397Z,973.28
2022-08-18T03:03:03.514Z,973.20
2022-08-18T03:04:03.493Z,973.20
2022-08-18T03:05:03.723Z,973.17
2022-08-18T03:06:03.726Z,973.05
2022-08-18T03:07:03.774Z,973.14
2022-08-18T03:08:03.769Z,973.14
2022-08-18T03:09:02.983Z,973.17
2022-08-18T03:10:34.107Z,973.23
2022-08-18T03:11:03.099Z,973.23
2022-08-18T03:12:03.100Z,973.17
2022-08-18T03:13:03.183Z,973.20
2022-08-18T03:14:03.253Z,973.32
2022-08-18T03:15:03.327Z,973.23
2022-08-18T03:16:03.316Z,973.17
2022-08-18T03:17:03.273Z,973.17
2022-08-18T03:18:03.472Z,973.17
2022-08-18T03:19:03.679Z,973.14
2022-08-18T03:20:04.593Z,973.12
2022-08-18T03:21:08.011Z,973.14
2022-08-18T03:22:03.996Z,973.20
2022-08-18T03:23:10.403Z,972.91
2022-08-18T03:24:10.616Z,973.09
2022-08-18T03:25:02.911Z,973.15
2022-08-18T03:26:02.993Z,973.18
2022-08-18T03:27:02.954Z,973.03
2022-08-18T03:28:02.956Z,973.00
2022-08-18T03:29:03.014Z,972.97
2022-08-18T03:30:03.026Z,972.89
2022-08-18T03:31:03.113Z,972.89
2022-08-18T03:32:03.230Z,972.97
2022-08-18T03:33:03.295Z,972.97
2022-08-18T03:34:04.713Z,973.00
2022-08-18T03:35:03.760Z,972.94
2022-08-18T03:36:03.811Z,972.97
2022-08-18T03:37:03.942Z,972.89
2022-08-18T03:38:02.956Z,972.92
2022-08-18T03:39:03.112Z,972.86
2022-08-18T03:40:03.191Z,973.00
2022-08-18T03:41:03.228Z,973.00
2022-08-18T03:42:03.313Z,973.09
2022-08-18T03:43:03.191Z,972.97
2022-08-18T03:44:03.590Z,972.97
2022-08-18T03:45:18.169Z,973.15
2022-08-18T03:46:03.585Z,973.00
2022-08-18T03:47:03.815Z,973.03
2022-08-18T03:48:02.921Z,972.98
2022-08-18T03:49:03.121Z,973.09
2022-08-18T03:50:03.165Z,973.03
2022-08-18T03:51:05.775Z,973.01
2022-08-18T03:52:03.287Z,973.01
2022-08-18T03:53:03.287Z,973.01
2022-08-18T03:54:03.468Z,973.04
2022-08-18T03:55:03.551Z,972.92
2022-08-18T03:56:03.535Z,972.89
2022-08-18T03:57:03.570Z,972.81
2022-08-18T03:58:03.623Z,972.81
2022-08-18T03:59:03.726Z,972.92
2022-08-18T04:00:03.790Z,972.98
2022-08-18T04:01:03.931Z,972.87
2022-08-18T04:02:03.819Z,972.95
2022-08-18T04:03:03.882Z,972.98
2022-08-18T04:04:03.051Z,972.95
2022-08-18T04:05:05.605Z,973.04
2022-08-18T04:06:03.259Z,972.90
2022-08-18T04:07:03.347Z,972.90
2022-08-18T04:08:03.529Z,972.87
2022-08-18T04:09:03.498Z,972.99
2022-08-18T04:10:03.546Z,973.01
2022-08-18T04:11:04.988Z,972.96
2022-08-18T04:12:04.178Z,973.01
2022-08-18T04:13:03.832Z,973.13
2022-08-18T04:14:03.953Z,973.13
2022-08-18T04:15:02.941Z,973.04
2022-08-18T04:16:03.019Z,973.04
2022-08-18T04:17:03.269Z,973.10
2022-08-18T04:18:04.586Z,973.10
2022-08-18T04:19:03.344Z,973.10
2022-08-18T04:20:03.316Z,972.99
2022-08-18T04:21:03.453Z,973.07
2022-08-18T04:22:03.477Z,972.99
2022-08-18T04:23:03.467Z,973.16
2022-08-18T04:24:03.662Z,973.13
2022-08-18T04:25:03.997Z,973.13
2022-08-18T04:26:03.146Z,973.16
2022-08-18T04:27:03.213Z,973.19
2022-08-18T04:28:03.151Z,973.13
2022-08-18T04:29:03.347Z,973.13
2022-08-18T04:30:03.425Z,973.22
2022-08-18T04:31:10.363Z,973.01
2022-08-18T04:32:03.332Z,973.13
2022-08-18T04:33:03.417Z,973.13
2022-08-18T04:34:03.620Z,973.27
2022-08-18T04:35:03.637Z,973.25
2022-08-18T04:36:03.468Z,973.27
2022-08-18T04:37:03.487Z,973.27
2022-08-18T04:38:03.487Z,973.16
2022-08-18T04:39:03.492Z,973.30
2022-08-18T04:40:03.778Z,973.18
2022-08-18T04:41:03.687Z,973.10
2022-08-18T04:42:03.860Z,973.10
2022-08-18T04:43:03.963Z,973.07
2022-08-18T04:44:02.990Z,973.18
2022-08-18T04:45:02.979Z,973.15
2022-08-18T04:46:02.902Z,973.21
2022-08-18T04:47:03.036Z,973.24
2022-08-18T04:48:03.051Z,973.30
2022-08-18T04:49:03.048Z,973.33
2022-08-18T04:50:03.057Z,973.18
2022-08-18T04:51:03.206Z,973.44
2022-08-18T04:52:41.469Z,973.41
2022-08-18T04:53:03.638Z,973.27
2022-08-18T04:54:03.576Z,973.41
2022-08-18T04:55:03.690Z,973.50
2022-08-18T04:56:03.640Z,973.47
2022-08-18T04:57:03.624Z,973.50
2022-08-18T04:58:03.862Z,973.54
2022-08-18T04:59:03.892Z,973.60
2022-08-18T05:00:03.059Z,973.66
2022-08-18T05:01:03.161Z,973.66
2022-08-18T05:02:03.117Z,973.57
2022-08-18T05:03:03.252Z,973.57
2022-08-18T05:04:03.353Z,973.63
2022-08-18T05:05:03.561Z,973.71
2022-08-18T05:06:03.426Z,973.74
2022-08-18T05:07:04.490Z,973.54
2022-08-18T05:08:03.425Z,973.60
2022-08-18T05:09:03.521Z,973.59
2022-08-18T05:10:03.511Z,973.68
2022-08-18T05:11:04.692Z,973.56
2022-08-18T05:12:03.106Z,973.65
2022-08-18T05:13:03.282Z,973.65
2022-08-18T05:14:03.262Z,973.59
2022-08-18T05:15:03.338Z,973.71
2022-08-18T05:16:16.930Z,973.77
2022-08-18T05:17:03.571Z,973.68
2022-08-18T05:18:06.905Z,973.68
2022-08-18T05:19:06.203Z,973.77
2022-08-18T05:20:03.835Z,973.71
2022-08-18T05:21:06.206Z,973.77
2022-08-18T05:22:03.395Z,973.77
2022-08-18T05:23:03.066Z,973.77
2022-08-18T05:24:03.120Z,973.77
2022-08-18T05:25:03.329Z,973.71
2022-08-18T05:26:03.308Z,973.65
2022-08-18T05:27:03.702Z,973.73
2022-08-18T05:28:03.403Z,973.59
2022-08-18T05:29:19.810Z,973.62
2022-08-18T05:30:03.516Z,973.79
2022-08-18T05:31:03.687Z,973.79
2022-08-18T05:32:03.821Z,973.79
2022-08-18T05:33:03.803Z,973.68
2022-08-18T05:34:03.828Z,973.68
2022-08-18T05:35:03.099Z,973.73
2022-08-18T05:36:02.972Z,973.67
2022-08-18T05:37:02.984Z,973.79
2022-08-18T05:38:03.090Z,973.70
2022-08-18T05:39:03.122Z,973.64
2022-08-18T05:40:11.508Z,973.67
2022-08-18T05:41:03.340Z,973.82
2022-08-18T05:42:03.423Z,973.82
2022-08-18T05:43:03.614Z,973.82
2022-08-18T05:44:03.641Z,973.84
2022-08-18T05:45:03.750Z,973.76
2022-08-18T05:46:02.967Z,973.84
2022-08-18T05:47:03.061Z,973.70
2022-08-18T05:48:02.973Z,973.81
2022-08-18T05:49:02.935Z,973.73
2022-08-18T05:50:03.094Z,973.84
2022-08-18T05:51:03.209Z,973.87
2022-08-18T05:52:03.347Z,973.90
2022-08-18T05:53:13.626Z,973.98
2022-08-18T05:54:03.414Z,973.87
2022-08-18T05:55:03.368Z,973.87
2022-08-18T05:56:03.508Z,973.98
2022-08-18T05:57:03.712Z,973.92
2022-08-18T05:58:03.837Z,973.81
2022-08-18T05:59:03.851Z,973.86
2022-08-18T06:00:03.133Z,973.92
2022-08-18T06:01:03.105Z,973.98
2022-08-18T06:02:03.157Z,974.01
2022-08-18T06:03:03.368Z,973.92
2022-08-18T06:04:03.413Z,973.98
2022-08-18T06:05:03.489Z,973.95
2022-08-18T06:06:03.494Z,973.95
2022-08-18T06:07:03.516Z,973.98
2022-08-18T06:08:03.544Z,973.86
2022-08-18T06:09:03.551Z,973.92
2022-08-18T06:10:03.733Z,973.95
2022-08-18T06:11:03.734Z,974.03
2022-08-18T06:12:03.757Z,973.92
2022-08-18T06:13:03.941Z,974.03
2022-08-18T06:14:02.894Z,974.03
2022-08-18T06:15:06.700Z,974.00
2022-08-18T06:16:03.004Z,973.97
2022-08-18T06:17:03.016Z,973.91
2022-08-18T06:18:03.203Z,974.03
2022-08-18T06:19:03.427Z,974.06
2022-08-18T06:20:03.488Z,973.97
2022-08-18T06:21:03.567Z,974.14
2022-08-18T06:22:03.553Z,974.03
2022-08-18T06:23:03.501Z,974.03
2022-08-18T06:24:03.929Z,974.03
2022-08-18T06:25:03.757Z,974.03
2022-08-18T06:26:03.905Z,974.06
2022-08-18T06:27:03.870Z,974.03
2022-08-18T06:28:03.020Z,973.94
2022-08-18T06:29:03.039Z,973.97
2022-08-18T06:30:03.099Z,974.03
2022-08-18T06:31:03.140Z,974.05
2022-08-18T06:32:03.328Z,973.82
2022-08-18T06:33:03.385Z,973.94
2022-08-18T06:34:03.461Z,974.08
2022-08-18T06:35:03.462Z,973.97
2022-08-18T06:36:03.473Z,973.91
2022-08-18T06:37:03.448Z,973.94
2022-08-18T06:38:03.512Z,973.97
2022-08-18T06:39:03.446Z,973.94
2022-08-18T06:40:03.827Z,974.08
2022-08-18T06:41:03.510Z,974.09
2022-08-18T06:42:03.622Z,974.09
2022-08-18T06:43:03.729Z,974.11
2022-08-18T06:44:03.862Z,974.03
2022-08-18T06:45:03.821Z,974.11
2022-08-18T06:46:03.877Z,974.03
2022-08-18T06:47:03.823Z,974.14
2022-08-18T06:48:03.892Z,974.00
2022-08-18T06:49:03.880Z,974.12
2022-08-18T06:50:03.878Z,974.14
2022-08-18T06:51:02.990Z,974.17
2022-08-18T06:52:03.013Z,974.29
2022-08-18T06:53:03.171Z,974.17
2022-08-18T06:54:03.204Z,974.23
2022-08-18T06:55:03.234Z,974.35
2022-08-18T06:56:03.542Z,974.32
2022-08-18T06:57:03.302Z,974.41
2022-08-18T06:58:03.231Z,974.41
2022-08-18T06:59:03.370Z,974.52
2022-08-18T07:00:03.463Z,974.41
2022-08-18T07:01:03.508Z,974.49
2022-08-18T07:02:03.426Z,974.52
2022-08-18T07:03:03.389Z,974.43
2022-08-18T07:04:03.825Z,974.43
2022-08-18T07:05:03.971Z,974.34
2022-08-18T07:06:02.955Z,974.49
2022-08-18T07:07:02.935Z,974.46
2022-08-18T07:08:03.049Z,974.43
2022-08-18T07:09:03.179Z,974.48
2022-08-18T07:10:04.638Z,974.42
2022-08-18T07:11:03.244Z,974.51
2022-08-18T07:12:03.219Z,974.54
2022-08-18T07:13:03.222Z,974.57
2022-08-18T07:14:17.231Z,974.59
2022-08-18T07:15:03.425Z,974.53
2022-08-18T07:16:05.790Z,974.48
2022-08-18T07:17:03.881Z,974.50
2022-08-18T07:18:02.908Z,974.44
2022-08-18T07:19:03.121Z,974.47
2022-08-18T07:20:03.101Z,974.44
2022-08-18T07:21:03.088Z,974.38
2022-08-18T07:22:03.112Z,974.33
2022-08-18T07:23:08.505Z,974.30
2022-08-18T07:24:25.446Z,974.35
2022-08-18T07:25:05.904Z,974.35
2022-08-18T07:26:03.384Z,974.44
2022-08-18T07:27:03.546Z,974.35
2022-08-18T07:28:03.510Z,974.30
2022-08-18T07:29:03.579Z,974.38
2022-08-18T07:30:03.661Z,974.41
2022-08-18T07:31:17.725Z,974.50
2022-08-18T07:32:03.792Z,974.41
2022-08-18T07:33:03.793Z,974.47
2022-08-18T07:34:03.942Z,974.35
2022-08-18T07:35:02.902Z,974.32
2022-08-18T07:36:03.108Z,974.18
2022-08-18T07:37:03.144Z,974.24
2022-08-18T07:38:41.846Z,974.24
2022-08-18T07:39:03.007Z,974.32
2022-08-18T07:40:03.410Z,974.32
2022-08-18T07:41:03.266Z,974.35
2022-08-18T07:42:03.340Z,974.30
2022-08-18T07:43:03.421Z,974.38
2022-08-18T07:44:03.476Z,974.41
2022-08-18T07:45:03.514Z,974.30
2022-08-18T07:46:03.465Z,974.33
2022-08-18T07:47:03.624Z,974.33
2022-08-18T07:48:37.419Z,974.24
2022-08-18T07:49:06.010Z,974.27
2022-08-18T07:50:57.740Z,974.30
2022-08-18T07:51:08.672Z,974.15
2022-08-18T07:52:04.598Z,974.21
2022-08-18T07:53:06.301Z,974.24
2022-08-18T07:54:02.943Z,974.30
2022-08-18T07:55:03.093Z,974.36
2022-08-18T07:56:02.979Z,974.33
2022-08-18T07:57:03.149Z,974.45
2022-08-18T07:58:03.095Z,974.46
2022-08-18T07:59:03.156Z,974.51
2022-08-18T08:00:03.259Z,974.49
2022-08-18T08:01:03.214Z,974.58
2022-08-18T08:02:03.439Z,974.43
2022-08-18T08:03:03.244Z,974.46
2022-08-18T08:04:03.300Z,974.49
2022-08-18T08:05:03.333Z,974.26
2022-08-18T08:06:03.516Z,974.26
2022-08-18T08:07:25.000Z,974.21
2022-08-18T08:08:03.939Z,974.18
2022-08-18T08:09:03.752Z,974.18
2022-08-18T08:10:03.708Z,974.12
2022-08-18T08:11:03.858Z,974.03
2022-08-18T08:12:03.834Z,974.06
2022-08-18T08:13:10.093Z,974.03
2022-08-18T08:14:03.082Z,974.06
2022-08-18T08:15:03.061Z,974.04
2022-08-18T08:16:03.099Z,973.95
2022-08-18T08:17:03.279Z,974.07
2022-08-18T08:18:03.440Z,974.07
2022-08-18T08:19:12.821Z,974.10
2022-08-18T08:20:03.683Z,974.18
2022-08-18T08:21:03.844Z,974.18
2022-08-18T08:22:03.787Z,974.13
2022-08-18T08:23:03.911Z,974.10
2022-08-18T08:24:03.117Z,974.10
2022-08-18T08:25:03.050Z,973.98
2022-08-18T08:26:03.139Z,974.10
2022-08-18T08:27:03.286Z,974.10
2022-08-18T08:28:03.250Z,974.07
2022-08-18T08:29:03.327Z,974.09
2022-08-18T08:30:03.387Z,974.04
2022-08-18T08:31:36.461Z,973.98
2022-08-18T08:32:03.562Z,973.92
2022-08-18T08:33:03.633Z,974.12
2022-08-18T08:34:06.487Z,974.00
2022-08-18T08:35:03.680Z,974.03
2022-08-18T08:36:03.771Z,974.03
2022-08-18T08:37:04.354Z,974.03
2022-08-18T08:38:42.583Z,974.00
2022-08-18T08:39:03.319Z,973.97
2022-08-18T08:40:03.464Z,973.97
2022-08-18T08:41:03.362Z,974.00
2022-08-18T08:42:35.441Z,974.09
2022-08-18T08:43:03.386Z,974.12
2022-08-18T08:44:03.515Z,973.97
2022-08-18T08:45:03.663Z,973.94
2022-08-18T08:46:03.765Z,974.03
2022-08-18T08:47:03.785Z,974.14
2022-08-18T08:48:09.776Z,974.11
2022-08-18T08:49:03.839Z,974.12
2022-08-18T08:50:02.956Z,974.15
2022-08-18T08:51:03.156Z,974.20
2022-08-18T08:52:03.048Z,974.15
2022-08-18T08:53:03.095Z,974.18
2022-08-18T08:54:03.194Z,974.15
2022-08-18T08:55:03.188Z,974.26
2022-08-18T08:56:03.325Z,974.29
2022-08-18T08:57:03.191Z,974.44
2022-08-18T08:58:03.299Z,974.38
2022-08-18T08:59:03.266Z,974.32
2022-08-18T09:00:03.236Z,974.41
2022-08-18T09:01:03.329Z,974.36
2022-08-18T09:02:05.553Z,974.24
2022-08-18T09:03:03.545Z,974.36
2022-08-18T09:04:03.633Z,974.36
2022-08-18T09:05:09.820Z,974.21
2022-08-18T09:06:03.654Z,974.27
2022-08-18T09:07:03.719Z,974.21
2022-08-18T09:08:03.807Z,974.15
2022-08-18T09:09:03.915Z,974.27
2022-08-18T09:10:04.336Z,974.21
2022-08-18T09:11:03.033Z,974.32
2022-08-18T09:12:03.223Z,974.24
2022-08-18T09:13:03.190Z,974.32
2022-08-18T09:14:03.307Z,974.29
2022-08-18T09:15:03.341Z,974.29
2022-08-18T09:16:14.131Z,974.09
2022-08-18T09:17:03.614Z,974.20
2022-08-18T09:18:03.594Z,974.23
2022-08-18T09:19:03.710Z,974.23
2022-08-18T09:20:03.761Z,974.23
2022-08-18T09:21:03.871Z,974.11
2022-08-18T09:22:03.883Z,974.23
2022-08-18T09:23:03.075Z,974.11
2022-08-18T09:24:02.974Z,973.99
2022-08-18T09:25:03.159Z,973.93
2022-08-18T09:26:04.525Z,973.99
2022-08-18T09:27:03.351Z,973.99
2022-08-18T09:28:12.081Z,973.96
2022-08-18T09:29:03.583Z,973.90
2022-08-18T09:30:03.625Z,973.79
2022-08-18T09:31:03.568Z,973.87
2022-08-18T09:32:03.711Z,973.81
2022-08-18T09:33:19.581Z,973.87
2022-08-18T09:34:11.425Z,973.79
2022-08-18T09:35:06.377Z,973.87
2022-08-18T09:36:02.963Z,973.76
2022-08-18T09:37:03.022Z,973.84
2022-08-18T09:38:03.099Z,973.73
2022-08-18T09:39:03.899Z,973.73
2022-08-18T09:40:13.265Z,973.81
2022-08-18T09:41:03.951Z,973.81
2022-08-18T09:42:03.817Z,973.75
2022-08-18T09:43:09.268Z,973.72
2022-08-18T09:44:04.046Z,973.72
2022-08-18T09:45:04.526Z,973.81
2022-08-18T09:46:03.431Z,973.72
2022-08-18T09:47:04.083Z,973.75
2022-08-18T09:48:07.887Z,973.90
2022-08-18T09:49:08.698Z,974.10
2022-08-18T09:50:04.330Z,973.89
2022-08-18T09:51:03.638Z,974.18
2022-08-18T09:52:03.767Z,974.13
2022-08-18T09:53:04.931Z,974.30
2022-08-18T09:54:03.831Z,974.24
2022-08-18T09:55:04.133Z,974.27
2022-08-18T09:56:05.776Z,974.18
2022-08-18T09:57:05.456Z,974.39
2022-08-18T09:58:03.366Z,974.30
2022-08-18T09:59:11.292Z,974.50
2022-08-18T10:00:03.155Z,974.36
2022-08-18T10:01:06.733Z,974.33
2022-08-18T10:02:03.692Z,974.27
2022-08-18T10:03:03.522Z,974.15
2022-08-18T10:04:03.545Z,973.98
2022-08-18T10:05:06.226Z,974.07
2022-08-18T10:06:04.205Z,973.98
2022-08-18T10:07:03.744Z,973.95
2022-08-18T10:08:04.120Z,973.80
2022-08-18T10:11:01.744Z,973.71
2022-08-18T10:11:09.692Z,973.68
2022-08-18T10:12:04.486Z,973.74
2022-08-18T10:13:04.690Z,973.77
2022-08-18T10:14:03.426Z,973.95
2022-08-18T10:15:03.969Z,973.89
2022-08-18T10:17:24.786Z,973.80
2022-08-18T10:18:03.615Z,973.77
2022-08-18T10:19:03.695Z,973.65
2022-08-18T10:20:05.003Z,973.65
2022-08-18T10:21:03.768Z,973.52
2022-08-18T10:22:03.974Z,973.54
2022-08-18T10:23:07.541Z,973.65
2022-08-18T10:24:32.484Z,973.80
2022-08-18T10:25:23.526Z,973.71
2022-08-18T10:26:06.175Z,973.77
2022-08-18T10:27:04.134Z,973.82
2022-08-18T10:28:03.233Z,973.85
2022-08-18T10:29:03.176Z,973.85
2022-08-18T10:30:03.669Z,973.82
2022-08-18T10:31:09.916Z,973.73
2022-08-18T10:32:03.348Z,973.61
2022-08-18T10:33:18.592Z,973.67
2022-08-18T10:34:18.537Z,973.61
2022-08-18T10:35:06.052Z,973.67
2022-08-18T10:36:03.652Z,973.73
2022-08-18T10:37:06.786Z,973.69
2022-08-18T10:38:03.673Z,973.87
2022-08-18T10:39:03.788Z,973.75
2022-08-18T10:40:03.878Z,973.72
2022-08-18T10:41:15.936Z,973.84
2022-08-18T10:42:03.790Z,973.72
2022-08-18T10:43:41.393Z,973.72
2022-08-18T10:44:29.006Z,973.57
2022-08-18T10:45:06.989Z,973.78
2022-08-18T10:47:12.518Z,973.69
2022-08-18T10:48:04.257Z,973.66
2022-08-18T10:49:04.829Z,973.69
2022-08-18T10:50:03.654Z,973.66
2022-08-18T10:51:04.893Z,973.69
2022-08-18T10:52:03.657Z,973.72
2022-08-18T10:53:38.781Z,973.66
2022-08-18T10:54:03.707Z,973.80
2022-08-18T10:55:06.530Z,973.77
2022-08-18T10:56:05.598Z,973.83
2022-08-18T10:57:03.086Z,973.95
2022-08-18T10:58:03.294Z,974.03
2022-08-18T10:59:03.319Z,973.95
2022-08-18T11:00:03.343Z,973.95
2022-08-18T11:01:04.004Z,974.01
2022-08-18T11:02:04.066Z,974.01
2022-08-18T11:03:50.805Z,974.09
2022-08-18T11:04:33.809Z,974.12
2022-08-18T11:05:04.030Z,973.98
2022-08-18T11:06:04.007Z,974.09
2022-08-18T11:07:08.401Z,974.06
2022-08-18T11:08:16.368Z,974.06
2022-08-18T11:09:03.647Z,973.98
2022-08-18T11:10:29.947Z,973.98
2022-08-18T11:11:38.795Z,973.89
2022-08-18T11:12:03.894Z,973.92
2022-08-18T11:13:10.305Z,973.86
2022-08-18T11:14:02.957Z,973.92
2022-08-18T11:15:23.961Z,973.89
2022-08-18T11:16:03.046Z,973.89
2022-08-18T11:17:03.165Z,973.91
2022-08-18T11:18:04.758Z,973.94
2022-08-18T11:19:04.499Z,974.00
2022-08-18T11:20:03.513Z,974.03
2022-08-18T11:21:13.073Z,973.83
2022-08-18T11:22:03.479Z,973.97
2022-08-18T11:23:03.508Z,974.06
2022-08-18T11:24:03.602Z,974.20
2022-08-18T11:25:04.152Z,974.15
2022-08-18T11:26:04.476Z,974.18
2022-08-18T11:27:03.665Z,974.12
2022-08-18T11:28:03.712Z,974.03
2022-08-18T11:29:05.975Z,974.06
2022-08-18T11:30:02.992Z,974.12
2022-08-18T11:31:06.843Z,974.15
2022-08-18T11:32:04.251Z,974.03
2022-08-18T11:33:04.094Z,974.03
2022-08-18T11:34:03.391Z,974.12
2022-08-18T11:35:03.402Z,973.91
2022-08-18T11:36:03.518Z,973.94
2022-08-18T11:37:09.296Z,973.97
2022-08-18T11:38:03.477Z,973.74
2022-08-18T11:39:05.178Z,974.06
2022-08-18T11:40:04.050Z,974.00
2022-08-18T11:41:12.502Z,974.00
2022-08-18T11:42:04.015Z,973.94
2022-08-18T11:43:03.832Z,974.03
2022-08-18T11:44:02.923Z,974.11
2022-08-18T11:45:03.627Z,973.97
2022-08-18T11:46:03.185Z,974.09
2022-08-18T11:47:03.226Z,974.03
2022-08-18T11:48:03.198Z,974.09
2022-08-18T11:49:04.904Z,974.03
2022-08-18T11:50:04.876Z,974.12
2022-08-18T11:51:05.092Z,973.97
2022-08-18T11:52:04.034Z,974.00
2022-08-18T11:53:03.367Z,974.03
2022-08-18T11:54:03.265Z,974.03
2022-08-18T11:55:24.294Z,974.08
2022-08-18T11:56:14.174Z,974.03
2022-08-18T11:57:10.551Z,974.03
2022-08-18T11:58:12.974Z,974.00
2022-08-18T11:59:03.139Z,973.97
2022-08-18T12:00:03.052Z,974.00
2022-08-18T12:02:03.584Z,973.88
2022-08-18T12:03:03.340Z,973.82
2022-08-18T12:04:03.449Z,973.97
2022-08-18T12:05:10.819Z,973.94
2022-08-18T12:06:04.360Z,973.88
2022-08-18T12:07:04.974Z,973.94
2022-08-18T12:08:11.213Z,973.85
2022-08-18T12:09:03.223Z,973.91
2022-08-18T12:11:28.055Z,973.85
2022-08-18T12:12:05.263Z,973.85
2022-08-18T12:13:03.591Z,973.79
2022-08-18T12:14:35.381Z,973.76
2022-08-18T12:15:22.775Z,973.67
2022-08-18T12:16:03.795Z,973.81
2022-08-18T12:17:06.941Z,973.78
2022-08-18T12:18:03.815Z,973.78
2022-08-18T12:19:05.680Z,973.75
2022-08-18T12:20:03.088Z,973.72
2022-08-18T12:21:03.509Z,973.63
2022-08-18T12:22:11.917Z,973.72
2022-08-18T12:23:03.599Z,973.60
2022-08-18T12:24:03.317Z,973.72
2022-08-18T12:25:12.504Z,973.78
2022-08-18T12:26:03.347Z,973.60
2022-08-18T12:27:22.303Z,973.75
2022-08-18T12:28:11.313Z,973.69
2022-08-18T12:29:03.463Z,973.69
2022-08-18T12:30:03.441Z,973.63
2022-08-18T12:31:17.199Z,973.69
2022-08-18T12:32:08.875Z,973.72
2022-08-18T12:33:12.778Z,973.65